createdAt,value
2017-05-24T18:10:45.898Z,21.37
2017-05-24T18:13:15.990Z,21.24
2017-05-24T18:15:44.838Z,21.21
2017-05-24T18:18:13.485Z,21.20
2017-05-24T18:20:40.788Z,21.10
2017-05-24T18:23:07.262Z,21.03
2017-05-24T18:25:33.829Z,20.94
2017-05-24T18:28:00.225Z,20.76
2017-05-24T18:30:27.585Z,20.75
2017-05-24T18:32:54.003Z,20.80
2017-05-24T18:35:20.405Z,20.81
2017-05-24T18:37:46.810Z,20.64
2017-05-24T18:40:13.198Z,20.60
2017-05-24T18:42:39.519Z,20.70
2017-05-24T18:45:05.862Z,20.56
2017-05-24T18:47:32.250Z,20.58
2017-05-24T18:49:58.645Z,20.35
2017-05-24T18:52:25.076Z,20.45
2017-05-24T18:54:51.470Z,20.46
2017-05-24T18:57:17.829Z,20.33
2017-05-24T18:59:44.194Z,20.27
2017-05-24T19:02:10.645Z,20.29
2017-05-24T19:04:37.019Z,20.28
2017-05-24T19:07:03.364Z,20.21
2017-05-24T19:09:29.702Z,20.12
2017-05-24T19:11:56.027Z,20.12
2017-05-24T19:14:22.442Z,19.89
2017-05-24T19:16:48.755Z,19.87
2017-05-24T19:19:15.129Z,19.65
2017-05-24T19:21:41.562Z,19.88
2017-05-24T19:24:07.937Z,19.77
2017-05-24T19:26:34.346Z,19.69
2017-05-24T19:29:00.704Z,19.61
2017-05-24T19:31:27.062Z,19.53
2017-05-24T19:33:53.644Z,19.65
2017-05-24T19:36:20.039Z,19.40
2017-05-24T19:38:46.381Z,19.44
2017-05-24T19:41:12.744Z,19.33
2017-05-24T19:43:39.092Z,19.34
2017-05-24T19:46:05.510Z,19.37
2017-05-24T19:48:31.871Z,19.34
2017-05-24T19:50:58.213Z,19.31
2017-05-24T19:53:24.664Z,19.07
2017-05-24T19:55:51.181Z,19.24
2017-05-24T19:58:17.655Z,19.13
2017-05-24T20:00:45.609Z,19.23
2017-05-24T20:03:11.948Z,19.13
2017-05-24T20:05:38.364Z,19.04
2017-05-24T20:08:05.080Z,18.77
2017-05-24T20:10:32.608Z,18.92
2017-05-24T20:12:59.446Z,19.07
2017-05-24T20:15:25.905Z,18.57
2017-05-24T20:17:52.798Z,18.74
2017-05-24T20:20:19.211Z,18.69
2017-05-24T20:22:45.814Z,18.60
2017-05-24T20:25:12.192Z,18.62
2017-05-24T20:27:38.601Z,18.48
2017-05-24T20:30:05.055Z,18.41
2017-05-24T20:32:31.509Z,18.52
2017-05-24T20:34:57.861Z,18.53
2017-05-24T20:37:24.226Z,18.61
2017-05-24T20:39:50.928Z,18.36
2017-05-24T20:42:17.357Z,18.48
2017-05-24T20:44:44.091Z,18.48
2017-05-24T20:47:10.481Z,18.15
2017-05-24T20:49:36.863Z,18.11
2017-05-24T20:52:03.259Z,17.89
2017-05-24T20:54:29.760Z,18.27
2017-05-24T20:57:00.550Z,17.84
2017-05-24T20:59:27.129Z,18.16
2017-05-24T21:01:53.694Z,17.90
2017-05-24T21:04:20.079Z,18.15
2017-05-24T21:06:47.246Z,17.98
2017-05-24T21:09:16.968Z,18.28
2017-05-24T21:11:44.159Z,18.35
2017-05-24T21:14:10.619Z,17.96
2017-05-24T21:16:36.996Z,18.10
2017-05-24T21:19:05.660Z,18.00
2017-05-24T21:21:32.026Z,18.05
2017-05-24T21:23:59.559Z,17.61
2017-05-24T21:26:26.117Z,18.12
2017-05-24T21:28:52.524Z,17.95
2017-05-24T21:31:22.090Z,17.79
2017-05-24T21:33:51.482Z,17.77
2017-05-24T21:36:18.107Z,17.36
2017-05-24T21:38:44.430Z,17.59
2017-05-24T21:41:10.796Z,17.17
2017-05-24T21:43:38.959Z,17.71
2017-05-24T21:46:06.326Z,17.43
2017-05-24T21:48:32.702Z,17.19
2017-05-24T21:51:00.428Z,17.45
2017-05-24T21:53:26.829Z,17.84
2017-05-24T21:55:53.214Z,16.89
2017-05-24T21:58:19.580Z,17.15
2017-05-24T22:00:45.921Z,17.09
2017-05-24T22:03:12.250Z,17.22
2017-05-24T22:05:39.432Z,17.18
2017-05-24T22:08:05.946Z,17.02
2017-05-24T22:10:32.310Z,16.94
2017-05-24T22:13:00.037Z,16.94
2017-05-24T22:15:26.420Z,16.96
2017-05-24T22:17:53.762Z,16.83
2017-05-24T22:20:20.638Z,17.23
2017-05-24T22:22:46.998Z,16.71
2017-05-24T22:25:13.362Z,16.88
2017-05-24T22:27:41.462Z,16.96
2017-05-24T22:30:07.928Z,16.70
2017-05-24T22:32:34.276Z,16.46
2017-05-24T22:35:00.627Z,16.51
2017-05-24T22:37:26.992Z,16.47
2017-05-24T22:39:53.352Z,16.05
2017-05-24T22:42:19.715Z,16.57
2017-05-24T22:44:46.057Z,16.12
2017-05-24T22:47:12.398Z,16.48
2017-05-24T22:49:38.766Z,16.35
2017-05-24T22:52:05.122Z,16.16
2017-05-24T22:54:31.453Z,16.29
2017-05-24T22:56:57.787Z,15.90
2017-05-24T22:59:24.160Z,16.08
2017-05-24T23:01:50.497Z,16.09
2017-05-24T23:04:16.840Z,16.10
2017-05-24T23:06:43.258Z,16.22
2017-05-24T23:09:09.601Z,16.53
2017-05-24T23:11:35.969Z,16.16
2017-05-24T23:14:02.302Z,15.97
2017-05-24T23:16:28.656Z,15.81
2017-05-24T23:18:54.965Z,16.53
2017-05-24T23:21:21.300Z,16.35
2017-05-24T23:23:47.639Z,15.45
2017-05-24T23:26:13.995Z,16.23
2017-05-24T23:28:40.350Z,16.40
2017-05-24T23:31:06.667Z,16.68
2017-05-24T23:33:33.024Z,16.78
2017-05-24T23:35:59.401Z,15.49
2017-05-24T23:38:25.758Z,14.91
2017-05-24T23:40:52.106Z,15.72
2017-05-24T23:43:18.435Z,15.93
2017-05-24T23:45:44.767Z,15.24
2017-05-24T23:48:11.110Z,15.87
2017-05-24T23:50:37.446Z,15.62
2017-05-24T23:53:03.868Z,14.76
2017-05-24T23:55:30.236Z,15.26
2017-05-24T23:57:56.581Z,14.77
